createdAt,value
2022-08-05T00:04:00.930Z,22.02
2022-08-05T00:08:57.935Z,22.00
2022-08-05T00:13:54.527Z,21.94
2022-08-05T00:18:51.498Z,21.89
2022-08-05T00:23:53.295Z,21.88
2022-08-05T00:29:01.720Z,21.88
2022-08-05T00:34:53.219Z,21.85
2022-08-05T00:39:15.618Z,21.79
2022-08-05T00:44:12.217Z,21.74
2022-08-05T00:49:08.875Z,21.67
2022-08-05T00:54:12.743Z,21.59
2022-08-05T00:59:09.415Z,21.52
2022-08-05T01:04:13.854Z,21.48
2022-08-05T01:09:11.319Z,21.46
2022-08-05T01:14:35.401Z,21.42
2022-08-05T01:20:01.568Z,21.38
2022-08-05T01:25:06.951Z,21.35
2022-08-05T01:30:04.818Z,21.33
2022-08-05T01:35:51.342Z,21.32
2022-08-05T01:40:35.028Z,21.23
2022-08-05T01:45:34.949Z,21.18
2022-08-05T01:50:40.591Z,21.18
2022-08-05T01:55:48.589Z,21.14
2022-08-05T02:00:49.737Z,21.07
2022-08-05T02:05:46.877Z,20.99
2022-08-05T02:10:49.501Z,20.91
2022-08-05T02:15:55.811Z,20.87
2022-08-05T02:20:59.756Z,20.87
2022-08-05T02:25:57.760Z,20.87
2022-08-05T02:30:59.435Z,20.71
2022-08-05T02:36:00.683Z,20.64
2022-08-05T02:40:58.652Z,20.54
2022-08-05T02:45:55.524Z,20.64
2022-08-05T02:51:06.274Z,20.75
2022-08-05T02:56:06.280Z,20.73
2022-08-05T03:01:03.679Z,20.61
2022-08-05T03:06:55.754Z,20.33
2022-08-05T03:11:57.042Z,20.09
2022-08-05T03:16:41.100Z,19.88
2022-08-05T03:21:41.662Z,19.76
2022-08-05T03:26:49.411Z,19.58
2022-08-05T03:31:56.509Z,19.53
2022-08-05T03:36:54.470Z,19.45
2022-08-05T03:41:52.662Z,19.41
2022-08-05T03:46:52.872Z,19.38
2022-08-05T03:52:38.456Z,19.32
2022-08-05T03:57:19.081Z,19.26
2022-08-05T04:02:38.934Z,19.20
2022-08-05T04:07:34.445Z,19.19
2022-08-05T04:12:51.781Z,19.22
2022-08-05T04:17:56.104Z,19.27
2022-08-05T04:22:54.245Z,19.29
2022-08-05T04:27:57.231Z,19.29
2022-08-05T04:32:56.896Z,19.30
2022-08-05T04:38:01.104Z,19.32
2022-08-05T04:43:02.344Z,19.34
2022-08-05T04:48:10.253Z,19.35
2022-08-05T04:53:17.135Z,19.35
2022-08-05T04:58:15.293Z,19.37
2022-08-05T05:03:18.809Z,19.37
2022-08-05T05:08:26.758Z,19.35
2022-08-05T05:13:32.376Z,19.35
2022-08-05T05:18:48.532Z,19.42
2022-08-05T05:24:02.767Z,19.43
2022-08-05T05:29:02.152Z,19.44
2022-08-05T05:34:02.047Z,19.46
2022-08-05T05:38:59.837Z,19.49
2022-08-05T05:44:00.234Z,19.55
2022-08-05T05:48:57.383Z,19.62
2022-08-05T05:53:59.755Z,19.59
2022-08-05T05:58:56.575Z,19.50
2022-08-05T06:04:01.880Z,19.42
2022-08-05T06:09:00.389Z,19.43
2022-08-05T06:13:57.402Z,19.44
2022-08-05T06:18:53.939Z,19.47
2022-08-05T06:23:50.528Z,19.52
2022-08-05T06:28:47.228Z,19.57
2022-08-05T06:34:07.970Z,19.72
2022-08-05T06:39:01.083Z,19.80
2022-08-05T06:44:00.624Z,19.91
2022-08-05T06:48:59.250Z,20.08
2022-08-05T06:53:58.190Z,20.25
2022-08-05T06:58:55.908Z,20.44
2022-08-05T07:03:52.624Z,20.67
2022-08-05T07:08:54.726Z,20.76
2022-08-05T07:14:20.276Z,20.75
2022-08-05T07:20:10.643Z,20.73
2022-08-05T07:24:43.919Z,20.65
2022-08-05T07:30:22.375Z,20.62
2022-08-05T07:36:04.263Z,20.59
2022-08-05T07:40:32.114Z,20.51
2022-08-05T07:45:56.444Z,20.50
2022-08-05T07:50:46.542Z,20.49
2022-08-05T07:56:05.616Z,20.43
2022-08-05T08:00:59.997Z,20.36
2022-08-05T08:05:57.028Z,20.37
2022-08-05T08:10:56.784Z,20.41
2022-08-05T08:16:34.856Z,20.41
2022-08-05T08:21:17.761Z,20.42
2022-08-05T08:26:14.593Z,20.43
2022-08-05T08:31:17.363Z,20.46
2022-08-05T08:36:46.340Z,20.48
2022-08-05T08:41:51.360Z,20.51
2022-08-05T08:46:51.958Z,20.51
2022-08-05T08:52:03.525Z,20.48
2022-08-05T08:57:03.463Z,20.42
2022-08-05T09:02:02.183Z,20.41
2022-08-05T09:06:58.937Z,20.39
2022-08-05T09:11:57.782Z,20.41
2022-08-05T09:17:40.486Z,20.39
2022-08-05T09:23:07.787Z,20.37
2022-08-05T09:28:21.142Z,20.35
2022-08-05T09:33:18.082Z,20.36
2022-08-05T09:38:27.447Z,20.39
2022-08-05T09:43:41.619Z,20.38
2022-08-05T09:48:38.586Z,20.39
2022-08-05T09:53:59.107Z,20.39
2022-08-05T09:59:04.081Z,20.42
2022-08-05T10:04:11.036Z,20.45
2022-08-05T10:09:27.852Z,20.46
2022-08-05T10:14:30.264Z,20.48
2022-08-05T10:20:04.058Z,20.49
2022-08-05T10:24:46.786Z,20.46
2022-08-05T10:30:06.854Z,20.45
2022-08-05T10:35:04.547Z,20.40
2022-08-05T10:40:17.598Z,20.39
2022-08-05T10:45:23.375Z,20.36
2022-08-05T10:50:36.195Z,20.30
2022-08-05T10:56:03.661Z,20.22
2022-08-05T11:00:55.190Z,20.19
2022-08-05T11:06:06.402Z,20.17
2022-08-05T11:11:44.676Z,20.11
2022-08-05T11:17:59.485Z,20.05
2022-08-05T11:22:49.685Z,20.04
2022-08-05T11:27:51.790Z,19.99
2022-08-05T11:33:43.875Z,19.90
2022-08-05T11:38:45.908Z,19.81
2022-08-05T11:44:06.730Z,19.74
2022-08-05T11:49:12.317Z,19.67
2022-08-05T11:54:11.749Z,19.63
2022-08-05T11:59:16.835Z,19.62
2022-08-05T12:04:18.047Z,19.59
2022-08-05T12:09:20.728Z,19.51
2022-08-05T12:14:39.198Z,19.47
2022-08-05T12:20:16.861Z,19.56
2022-08-05T12:25:14.224Z,19.65
2022-08-05T12:30:15.514Z,19.73
2022-08-05T12:35:16.827Z,19.85
2022-08-05T12:40:26.387Z,20.00
2022-08-05T12:45:23.370Z,20.12
2022-08-05T12:50:39.459Z,20.27
2022-08-05T12:55:37.164Z,20.36
2022-08-05T13:02:03.363Z,20.48
2022-08-05T13:05:53.600Z,20.61
2022-08-05T13:10:50.828Z,20.74
2022-08-05T13:15:51.229Z,20.79
2022-08-05T13:20:49.896Z,20.87
2022-08-05T13:25:52.543Z,20.96
2022-08-05T13:30:57.251Z,21.06
2022-08-05T13:35:55.167Z,21.23
2022-08-05T13:41:00.205Z,21.35
2022-08-05T13:45:57.200Z,21.48
2022-08-05T13:50:57.113Z,21.51
2022-08-05T13:55:57.656Z,21.50
2022-08-05T14:00:58.762Z,21.54
2022-08-05T14:06:24.891Z,21.55
2022-08-05T14:11:20.529Z,21.59
2022-08-05T14:16:19.264Z,21.59
2022-08-05T14:22:09.278Z,21.63
2022-08-05T14:26:35.777Z,21.64
2022-08-05T14:32:02.436Z,21.70
2022-08-05T14:36:55.830Z,21.69
2022-08-05T14:42:15.947Z,21.76
2022-08-05T14:47:09.165Z,21.72
2022-08-05T14:52:05.969Z,21.79
2022-08-05T14:57:09.802Z,21.79
2022-08-05T15:02:15.920Z,21.80
2022-08-05T15:08:11.379Z,21.79
2022-08-05T15:12:59.744Z,21.76
2022-08-05T15:17:55.081Z,21.77
2022-08-05T15:22:55.133Z,21.86
2022-08-05T15:27:54.800Z,21.86
2022-08-05T15:32:51.586Z,21.84
2022-08-05T15:38:32.353Z,21.78
2022-08-05T15:43:09.337Z,21.66
2022-08-05T15:48:09.916Z,21.49
2022-08-05T15:53:12.710Z,21.36
2022-08-05T15:58:16.432Z,21.26
2022-08-05T16:03:13.700Z,21.18
2022-08-05T16:08:11.452Z,21.07
2022-08-05T16:13:12.696Z,20.91
2022-08-05T16:18:20.081Z,20.77
2022-08-05T16:23:24.710Z,20.67
2022-08-05T16:28:21.247Z,20.65
2022-08-05T16:33:20.932Z,20.58
2022-08-05T16:38:25.709Z,20.51
2022-08-05T16:43:26.474Z,20.46
2022-08-05T16:48:25.438Z,20.40
2022-08-05T16:53:32.061Z,20.36
2022-08-05T16:58:29.518Z,20.29
2022-08-05T17:03:26.503Z,20.24
2022-08-05T17:08:35.903Z,20.23
2022-08-05T17:13:37.530Z,20.17
2022-08-05T17:18:37.996Z,20.09
2022-08-05T17:24:04.710Z,20.04
2022-08-05T17:28:52.317Z,19.96
2022-08-05T17:33:50.826Z,19.95
2022-08-05T17:38:48.056Z,19.92
2022-08-05T17:43:50.596Z,19.80
2022-08-05T17:48:50.086Z,19.70
2022-08-05T17:53:54.470Z,19.62
2022-08-05T17:58:51.515Z,19.51
2022-08-05T18:04:03.816Z,19.40
2022-08-05T18:09:03.800Z,19.31
2022-08-05T18:14:13.597Z,19.20
2022-08-05T18:19:16.958Z,19.16
2022-08-05T18:24:14.463Z,19.11
2022-08-05T18:29:11.153Z,19.07
2022-08-05T18:34:12.202Z,18.99
2022-08-05T18:39:22.357Z,18.90
2022-08-05T18:44:34.978Z,18.84
2022-08-05T18:50:02.800Z,18.74
2022-08-05T18:54:59.848Z,18.64
2022-08-05T19:00:02.194Z,18.59
2022-08-05T19:06:05.722Z,18.53
2022-08-05T19:10:28.162Z,18.51
2022-08-05T19:15:58.928Z,18.43
2022-08-05T19:20:46.958Z,18.36
2022-08-05T19:25:43.794Z,18.30
2022-08-05T19:30:44.718Z,18.25
2022-08-05T19:35:56.540Z,18.20
2022-08-05T19:40:54.302Z,18.15
2022-08-05T19:45:54.554Z,18.13
2022-08-05T19:50:52.757Z,18.11
2022-08-05T19:56:15.292Z,18.11
2022-08-05T20:01:06.764Z,18.13
2022-08-05T20:06:15.610Z,18.09
2022-08-05T20:11:21.772Z,18.03
2022-08-05T20:16:19.541Z,17.97
2022-08-05T20:21:22.951Z,17.92
2022-08-05T20:26:21.110Z,17.89
2022-08-05T20:31:21.791Z,17.83
2022-08-05T20:36:20.765Z,17.79
2022-08-05T20:41:23.935Z,17.77
2022-08-05T20:46:24.922Z,17.72
2022-08-05T20:51:22.166Z,17.71
2022-08-05T20:56:18.730Z,17.70
2022-08-05T21:01:26.203Z,17.65
2022-08-05T21:06:35.464Z,17.59
2022-08-05T21:12:09.533Z,17.58
2022-08-05T21:16:48.931Z,17.54
2022-08-05T21:21:50.963Z,17.51
2022-08-05T21:26:58.393Z,17.49
2022-08-05T21:31:55.681Z,17.45
2022-08-05T21:36:52.815Z,17.43
2022-08-05T21:41:52.765Z,17.43
2022-08-05T21:46:58.259Z,17.40
2022-08-05T21:52:15.821Z,17.38
2022-08-05T22:02:28.490Z,17.32
2022-08-05T22:07:39.741Z,17.28
2022-08-05T22:12:45.033Z,17.24
2022-08-05T22:17:56.376Z,17.22
2022-08-05T22:23:17.135Z,17.18
2022-08-05T22:28:18.327Z,17.12
2022-08-05T22:33:15.778Z,17.11
2022-08-05T22:38:12.707Z,17.08
2022-08-05T22:43:09.314Z,17.05
2022-08-05T22:48:09.814Z,17.02
2022-08-05T22:53:09.767Z,16.98
2022-08-05T22:58:06.568Z,16.94
2022-08-05T23:03:08.284Z,16.91
2022-08-05T23:08:10.461Z,16.87
2022-08-05T23:13:08.053Z,16.80
2022-08-05T23:18:05.905Z,16.76
2022-08-05T23:23:09.026Z,16.76
2022-08-05T23:28:07.007Z,16.71
2022-08-05T23:33:04.230Z,16.70
2022-08-05T23:38:00.961Z,16.67
2022-08-05T23:42:57.532Z,16.64
2022-08-05T23:47:59.339Z,16.61
2022-08-05T23:52:56.237Z,16.56
2022-08-05T23:57:55.211Z,16.56
